Maryland METAR Reports


Distance/Direction noted is from Ellicott City, MD as the crow flies

KCBE - Cumberland - 118 miles WNW
Updated: Mon, 07/28/2014 12:09 PM
Clear
Clear
 Wind from W
Wind: W 14 mph, Gust: 23 mph
Temperature: 77°F
Dew Point: 55°F
Humidity: 47%
Barometer: 29.77 inHg
Clouds: Clear
Visibility: 10 miles
2014/07/28 16:09 KCBE 281609Z AUTO 28012G20KT 10SM CLR 25/13 A2977 RMK AO1
KHGR - Hagerstown - 57 miles NW
Updated: Mon, 07/28/2014 11:53 AM
Few Clouds
Few Clouds
 Wind from W
Wind: W 22 mph, Gust: 30 mph
Temperature: 75°F
Dew Point: 57°F
Humidity: 54%
Barometer: 29.68 inHg
Clouds: Few Clouds
Visibility: 10 miles
Cloud Details: Few Clouds 6000 ft
2014/07/28 15:53 KHGR 281553Z AUTO 27019G26KT 10SM FEW060 24/14 A2968 RMK AO2 PK WND 30027/1525 SLP055 T02440139
 
KFDK - Frederick - 34 miles NW
Updated: Mon, 07/28/2014 11:48 AM
Mostly Cloudy
Mostly Cloudy
 Wind from WNW
Wind: WNW 18 mph, Gust: 25 mph
Temperature: 79°F
Dew Point: 63°F
Humidity: 58%
Barometer: 29.70 inHg
Clouds: Mostly Cloudy
Visibility: 10 miles
Cloud Details: Mostly Cloudy 5500 ft
2014/07/28 15:48 KFDK 281548Z 30016G22KT 10SM BKN055 26/17 A2970
KGAI - Gaithersburg - 26 miles SW
Updated: Mon, 07/28/2014 12:15 PM
Mostly Cloudy
Mostly Cloudy
 Wind from W
Wind: W 14 mph, Gust: 21 mph
Temperature: 79°F
Dew Point: 61°F
Humidity: 54%
Barometer: 29.72 inHg
Clouds: Mostly Cloudy
Visibility: 10 miles
Cloud Details: Few Clouds 4800 ft
Partly Cloudy 5500 ft
Mostly Cloudy 9000 ft
2014/07/28 16:15 KGAI 281615Z AUTO 28012G18KT 10SM FEW048 SCT055 BKN090 26/16 A2972 RMK AO1
 
KBWI - BWI Airport - 15 miles SE
Updated: Mon, 07/28/2014 11:54 AM
Partly Cloudy
Partly Cloudy
 Wind from W
Wind: W 18 mph, Gust: 31 mph
Temperature: 84°F
Heat Index: 83°F
Dew Point: 57°F
Humidity: 40%
Barometer: 29.65 inHg
Clouds: Partly Cloudy
Visibility: 10 miles
Cloud Details: Partly Cloudy 4800 ft
Partly Cloudy 10000 ft
2014/07/28 15:54 KBWI 281554Z 27016G27KT 10SM SCT048 SCT100 29/14 A2965 RMK AO2 PK WND 27027/1547 SLP038 T02890144
KNAK - Annapolis - 32 miles SSE
Updated: Mon, 07/28/2014 11:54 AM
Partly Cloudy
Partly Cloudy
 Wind from NW
Wind: NW 12 mph, Gust: 28 mph
Temperature: 82°F
Heat Index: 82°F
Dew Point: 59°F
Humidity: 45%
Barometer: 29.65 inHg
Clouds: Partly Cloudy
Visibility: 10 miles
Cloud Details: Partly Cloudy 6000 ft
Partly Cloudy 11000 ft
2014/07/28 15:54 KNAK 281554Z AUTO 31010G24KT 10SM SCT060 SCT110 28/15 A2965 RMK AO2 SLP041 T02780150
 
KESN - Easton - 63 miles SE
Updated: Mon, 07/28/2014 11:50 AM
Mostly Cloudy
Mostly Cloudy
 Wind from WNW
Wind: WNW 12 mph, Gust: 24 mph
Temperature: 82°F
Heat Index: 83°F
Dew Point: 63°F
Humidity: 51%
Barometer: 29.69 inHg
Clouds: Mostly Cloudy
Visibility: 10 miles
Cloud Details: Partly Cloudy 4400 ft
Mostly Cloudy 10000 ft
2014/07/28 15:50 KESN 281550Z 30010G21KT 10SM SCT044 BKN100 28/17 A2969
KSBY - Salisbury - 112 miles SE
Updated: Sun, 07/27/2014 9:55 PM
NOT Current
Clear
Clear
 Wind from S
Wind: S 7 mph
Temperature: 79°F
Dew Point: 72°F
Humidity: 79%
Barometer: 29.73 inHg
Clouds: Clear
Visibility: 10 miles
2014/07/28 01:55 KSBY 280155Z 18006KT 10SM CLR 26/22 A2973 RMK AO2 SLP068 T02560222